Bruceton Mills, West Virginia
Current Conditions -  °F | °C
As of 5:03 PM on Friday 31 Oct 2014 (Local Time) from KMGW Reporting Station
Light Rain Light Rain  
Wind Chill:   Ceiling: 2900
Heat Index:   Visibility: 8mi
Dew Point:   Wind: 5mph
Humidity: 73%   Direction: 330°NNW
Pressure: 29.86"   Gusts: NA
Location:  39.66°N, 79.64°W
Report Text: KMGW 312103Z 33004KT 8SM -RA OVC029 08/03 A2986 RMK AO2 P0000 T00780033
Loading
Personal Weather Stations






























Interactive Weather Map
Tropical Storm Tracking
New forecast layout! Learn more

10-Day Weather Forecast

Advertisements
Track Severe Weather on mobile